Time;durP1;ratioP1;P1;durP2;ratioP2;P2;SDS_P1;SDS_P2;PMS_P1;PMS_P2;Temp;Humidity;BMP_temperature;BMP_pressure;BME280_temperature;BME280_humidity;BME280_pressure;Samples;Min_cycle;Max_cycle;Signal;HPM_P1;HPM_P2
2023/08/13 00:02:07;;;;;;;1.63;0.93;;;22.50;73.50;;;;;;5021853;28;20179;-77
2023/08/13 00:04:32;;;;;;;0.95;0.77;;;22.50;73.60;;;;;;5023899;28;20041;-77
2023/08/13 00:06:59;;;;;;;1.27;0.82;;;22.50;73.60;;;;;;5024380;28;20041;-77
2023/08/13 00:09:25;;;;;;;1.02;0.70;;;22.50;73.60;;;;;;5022546;28;20037;-77
2023/08/13 00:11:50;;;;;;;0.45;0.40;;;22.50;73.50;;;;;;5023975;28;20041;-78
2023/08/13 00:14:16;;;;;;;1.00;0.57;;;22.50;73.60;;;;;;5023039;28;20053;-77
2023/08/13 00:16:41;;;;;;;1.02;0.68;;;22.50;73.50;;;;;;5021483;28;20420;-77
2023/08/13 00:19:07;;;;;;;0.98;0.80;;;22.50;73.60;;;;;;5020009;28;20132;-77
2023/08/13 00:21:33;;;;;;;1.40;0.70;;;22.50;73.60;;;;;;5024542;28;20101;-77
2023/08/13 00:23:58;;;;;;;0.70;0.50;;;22.50;73.70;;;;;;5024010;28;20403;-77
2023/08/13 00:26:24;;;;;;;0.90;0.73;;;22.50;73.60;;;;;;5022794;28;20052;-77
2023/08/13 00:28:49;;;;;;;0.60;0.50;;;22.50;73.70;;;;;;5024469;28;20515;-77
2023/08/13 00:31:15;;;;;;;0.70;0.55;;;22.50;74.40;;;;;;5026397;28;20613;-77
2023/08/13 00:33:41;;;;;;;0.75;0.60;;;22.50;74.40;;;;;;5027706;28;20148;-77
2023/08/13 00:36:07;;;;;;;0.88;0.60;;;22.50;73.60;;;;;;5027890;28;20063;-77
2023/08/13 00:38:32;;;;;;;0.57;0.40;;;22.50;73.60;;;;;;5027088;28;20052;-77
2023/08/13 00:40:58;;;;;;;0.65;0.55;;;22.50;73.60;;;;;;5027625;28;20128;-77
2023/08/13 00:43:23;;;;;;;0.80;0.80;;;22.50;73.60;;;;;;5028136;28;20049;-77
2023/08/13 00:45:49;;;;;;;0.82;0.55;;;22.50;73.50;;;;;;5027485;28;20622;-77
2023/08/13 00:48:15;;;;;;;1.23;0.63;;;22.50;73.50;;;;;;5026446;28;20110;-77
2023/08/13 00:50:40;;;;;;;1.33;0.50;;;22.50;73.60;;;;;;5027491;28;20038;-77
2023/08/13 00:53:06;;;;;;;2.20;0.70;;;22.50;73.60;;;;;;5026385;28;20050;-77
2023/08/13 00:55:32;;;;;;;0.90;0.60;;;22.50;73.60;;;;;;5026734;28;20111;-78
2023/08/13 00:57:58;;;;;;;0.80;0.80;;;22.50;73.60;;;;;;5027739;28;20045;-77
2023/08/13 01:00:23;;;;;;;1.20;1.00;;;22.50;73.60;;;;;;5009119;28;20392;-77
2023/08/13 01:02:49;;;;;;;0.73;0.50;;;22.50;73.60;;;;;;5027030;28;20060;-77
2023/08/13 01:05:14;;;;;;;1.35;0.68;;;22.50;73.60;;;;;;5009540;28;20131;-77
2023/08/13 01:07:47;;;;;;;2.00;0.60;;;22.50;73.60;;;;;;5028045;28;20037;-78
2023/08/13 01:10:33;;;;;;;1.90;0.80;;;22.50;73.60;;;;;;5026827;28;20120;-77
2023/08/13 01:13:21;;;;;;;0.90;0.60;;;22.40;73.40;;;;;;5010623;28;20089;-77
2023/08/13 01:15:46;;;;;;;1.77;0.50;;;22.50;73.60;;;;;;5010610;28;20086;-77
2023/08/13 01:18:12;;;;;;;0.57;0.40;;;22.50;73.50;;;;;;5026575;28;20045;-77
2023/08/13 01:20:39;;;;;;;0.98;0.93;;;22.50;73.60;;;;;;5027176;28;20426;-77
2023/08/13 01:23:04;;;;;;;0.90;0.70;;;22.50;73.50;;;;;;5026772;28;20045;-77
2023/08/13 01:25:30;;;;;;;0.88;0.60;;;22.50;73.70;;;;;;5025982;28;20044;-77
2023/08/13 01:28:05;;;;;;;0.40;0.38;;;22.50;73.60;;;;;;5025452;28;20191;-77
2023/08/13 01:30:39;;;;;;;0.70;0.70;;;22.50;73.60;;;;;;5025011;28;20530;-77
2023/08/13 01:33:06;;;;;;;0.70;0.70;;;22.50;73.50;;;;;;5026634;28;20136;-77
2023/08/13 01:35:32;;;;;;;1.05;0.77;;;22.50;73.60;;;;;;5025124;28;20065;-77
2023/08/13 01:37:58;;;;;;;1.02;0.50;;;22.50;73.50;;;;;;5010564;28;20045;-77
2023/08/13 01:40:24;;;;;;;1.40;0.90;;;22.40;73.40;;;;;;5025679;28;20542;-77
2023/08/13 01:42:49;;;;;;;0.82;0.80;;;22.40;73.40;;;;;;5024828;28;20069;-77
2023/08/13 01:45:15;;;;;;;1.02;0.70;;;22.40;73.40;;;;;;5025520;28;20034;-77
2023/08/13 01:47:40;;;;;;;1.92;0.52;;;22.40;73.40;;;;;;5024737;28;20504;-77
2023/08/13 01:50:06;;;;;;;0.90;0.70;;;22.50;73.50;;;;;;5025754;28;20118;-77
2023/08/13 01:52:32;;;;;;;0.60;0.47;;;22.50;73.50;;;;;;5025629;28;20088;-77
2023/08/13 01:54:58;;;;;;;0.43;0.43;;;22.40;73.50;;;;;;5026469;28;20033;-77
2023/08/13 01:57:23;;;;;;;0.85;0.60;;;22.40;73.50;;;;;;5025644;28;20120;-77
2023/08/13 01:59:49;;;;;;;0.52;0.50;;;22.40;73.50;;;;;;5008821;28;20534;-77
2023/08/13 02:02:15;;;;;;;1.23;0.80;;;22.40;73.50;;;;;;5022910;28;20083;-77
2023/08/13 02:04:40;;;;;;;1.23;0.60;;;22.40;73.60;;;;;;5028780;28;20144;-77
2023/08/13 02:07:06;;;;;;;1.02;0.80;;;22.40;73.50;;;;;;5024559;28;20069;-77
2023/08/13 02:09:31;;;;;;;1.48;0.70;;;22.40;73.50;;;;;;5027864;28;20076;-77
2023/08/13 02:11:57;;;;;;;0.68;0.60;;;22.40;73.50;;;;;;5027080;28;20041;-77
2023/08/13 02:14:22;;;;;;;0.65;0.52;;;22.40;73.50;;;;;;5026539;28;20454;-77
2023/08/13 02:16:48;;;;;;;0.65;0.50;;;22.40;73.50;;;;;;5026624;28;20447;-77
2023/08/13 02:19:13;;;;;;;1.08;0.68;;;22.40;74.30;;;;;;5023524;28;20056;-77
2023/08/13 02:21:39;;;;;;;0.60;0.50;;;22.40;73.50;;;;;;5026539;28;20046;-77
2023/08/13 02:24:05;;;;;;;0.50;0.40;;;22.40;73.50;;;;;;5025657;28;20045;-77
2023/08/13 02:26:30;;;;;;;1.17;0.70;;;22.40;73.50;;;;;;5024436;28;20034;-77
2023/08/13 02:28:56;;;;;;;0.80;0.63;;;22.40;73.60;;;;;;5024470;28;20045;-77
2023/08/13 02:31:22;;;;;;;0.70;0.60;;;22.40;73.60;;;;;;5023138;28;20076;-77
2023/08/13 02:33:47;;;;;;;1.17;0.73;;;22.40;73.50;;;;;;5024940;28;20052;-77
2023/08/13 02:36:13;;;;;;;0.80;0.70;;;22.40;73.50;;;;;;5024735;28;20096;-77
2023/08/13 02:38:38;;;;;;;1.27;0.70;;;22.40;73.50;;;;;;5008843;28;20075;-77
2023/08/13 02:41:04;;;;;;;0.70;0.70;;;22.40;73.50;;;;;;5024985;28;20052;-77
2023/08/13 02:43:33;;;;;;;0.50;0.50;;;22.40;73.50;;;;;;5022392;28;20045;-77
2023/08/13 02:45:58;;;;;;;0.88;0.70;;;22.40;73.50;;;;;;5009982;28;20561;-77
2023/08/13 02:48:24;;;;;;;0.70;0.50;;;22.40;73.50;;;;;;5024992;28;20038;-77
2023/08/13 02:50:49;;;;;;;0.55;0.55;;;22.40;73.40;;;;;;5026735;28;20597;-77
2023/08/13 02:53:15;;;;;;;1.15;0.73;;;22.40;73.50;;;;;;5023152;28;20049;-77
2023/08/13 02:55:40;;;;;;;0.90;0.70;;;22.40;74.20;;;;;;5025340;28;20088;-77
2023/08/13 02:58:06;;;;;;;0.60;0.60;;;22.40;73.40;;;;;;5025884;28;20065;-77
2023/08/13 03:00:32;;;;;;;0.73;0.50;;;22.40;73.40;;;;;;5024384;28;20095;-77
2023/08/13 03:02:57;;;;;;;1.02;0.80;;;22.40;73.50;;;;;;5005691;28;20125;-77
2023/08/13 03:05:23;;;;;;;1.20;1.00;;;22.40;73.50;;;;;;5021407;28;20042;-77
2023/08/13 03:07:48;;;;;;;0.90;0.75;;;22.40;73.40;;;;;;5024493;28;20041;-77
2023/08/13 03:10:14;;;;;;;0.50;0.50;;;22.40;74.20;;;;;;5024211;28;20568;-77
2023/08/13 03:12:39;;;;;;;0.65;0.60;;;22.40;73.40;;;;;;5023356;28;20095;-77
2023/08/13 03:15:05;;;;;;;0.70;0.60;;;22.40;73.40;;;;;;5008266;28;20053;-77
2023/08/13 03:17:31;;;;;;;0.90;0.70;;;22.40;73.40;;;;;;5024193;28;20052;-77
2023/08/13 03:19:58;;;;;;;2.30;0.70;;;22.40;73.40;;;;;;5007295;28;20053;-77
2023/08/13 03:22:24;;;;;;;1.00;0.90;;;22.40;73.40;;;;;;5024695;28;20044;-77
2023/08/13 03:24:49;;;;;;;0.95;0.80;;;22.40;73.40;;;;;;5025292;28;20049;-77
2023/08/13 03:27:15;;;;;;;0.75;0.60;;;22.40;73.40;;;;;;5024669;28;20040;-76
2023/08/13 03:29:41;;;;;;;1.00;0.68;;;22.40;73.30;;;;;;5026290;28;20041;-77
2023/08/13 03:32:06;;;;;;;0.98;0.77;;;22.40;73.30;;;;;;5023891;28;20095;-77
2023/08/13 03:34:32;;;;;;;0.80;0.80;;;22.40;73.40;;;;;;5023529;28;20061;-77
2023/08/13 03:36:57;;;;;;;1.15;0.75;;;22.40;73.40;;;;;;5025595;28;20076;-77
2023/08/13 03:39:23;;;;;;;0.77;0.65;;;22.40;73.40;;;;;;5023349;28;20092;-77
2023/08/13 03:41:49;;;;;;;1.25;0.77;;;22.40;73.40;;;;;;5025713;28;20521;-77
2023/08/13 03:44:14;;;;;;;1.25;0.60;;;22.40;73.40;;;;;;5023958;28;20052;-77
2023/08/13 03:46:40;;;;;;;1.45;0.73;;;22.40;73.40;;;;;;5021094;28;20045;-77
2023/08/13 03:49:05;;;;;;;0.80;0.70;;;22.30;73.30;;;;;;5022466;28;20025;-77
2023/08/13 03:51:31;;;;;;;0.63;0.60;;;22.40;73.40;;;;;;5025467;28;20033;-77
2023/08/13 03:53:56;;;;;;;1.05;0.70;;;22.40;73.40;;;;;;5024372;28;20117;-77
2023/08/13 03:56:24;;;;;;;1.45;0.70;;;22.30;73.20;;;;;;5022312;28;20103;-77
2023/08/13 03:58:50;;;;;;;0.68;0.52;;;22.40;73.40;;;;;;5024877;28;20095;-76
2023/08/13 04:01:16;;;;;;;0.65;0.50;;;22.40;73.30;;;;;;5024057;28;20452;-76
2023/08/13 04:03:41;;;;;;;1.05;0.75;;;22.40;73.30;;;;;;5026147;28;20065;-77
2023/08/13 04:06:07;;;;;;;0.60;0.60;;;22.40;73.30;;;;;;5028580;28;20095;-77
2023/08/13 04:08:34;;;;;;;0.93;0.60;;;22.40;73.30;;;;;;5028037;28;20487;-77
2023/08/13 04:10:59;;;;;;;0.77;0.70;;;22.40;74.10;;;;;;5029624;28;20562;-77
2023/08/13 04:13:25;;;;;;;0.85;0.65;;;22.40;73.30;;;;;;5026393;28;20132;-76
2023/08/13 04:15:51;;;;;;;1.10;0.73;;;22.40;73.40;;;;;;5027755;28;20127;-77
2023/08/13 04:18:16;;;;;;;0.90;0.82;;;22.40;73.30;;;;;;5028228;28;20060;-77
2023/08/13 04:20:42;;;;;;;1.38;0.75;;;22.40;73.40;;;;;;5027510;28;20041;-77
2023/08/13 04:23:07;;;;;;;0.55;0.52;;;22.40;73.30;;;;;;5027843;28;20037;-77
2023/08/13 04:25:33;;;;;;;1.33;0.77;;;22.40;73.30;;;;;;5026805;28;20089;-77
2023/08/13 04:27:58;;;;;;;0.73;0.52;;;22.40;73.30;;;;;;5027554;28;20128;-77
2023/08/13 04:30:24;;;;;;;0.93;0.68;;;22.40;73.30;;;;;;5027792;28;20036;-77
2023/08/13 04:32:54;;;;;;;0.75;0.60;;;22.40;73.30;;;;;;5011552;28;20578;-77
2023/08/13 04:35:20;;;;;;;0.70;0.60;;;22.30;73.20;;;;;;5028282;28;20403;-77
2023/08/13 04:37:45;;;;;;;0.77;0.65;;;22.30;73.20;;;;;;5025906;28;20050;-76
2023/08/13 04:40:11;;;;;;;0.98;0.80;;;22.30;73.30;;;;;;5026332;28;20052;-77
2023/08/13 04:42:37;;;;;;;0.50;0.50;;;22.30;73.30;;;;;;5026680;28;20072;-77
2023/08/13 04:45:02;;;;;;;0.95;0.60;;;22.30;73.30;;;;;;5028966;28;20037;-77
2023/08/13 04:47:28;;;;;;;1.08;0.77;;;22.30;73.30;;;;;;5008204;28;20049;-77
2023/08/13 04:49:53;;;;;;;1.02;0.68;;;22.30;73.30;;;;;;5027024;28;20056;-77
2023/08/13 04:52:19;;;;;;;0.75;0.55;;;22.30;73.30;;;;;;5009861;28;20045;-77
2023/08/13 04:54:46;;;;;;;1.55;0.50;;;22.30;73.30;;;;;;5026227;28;20251;-77
2023/08/13 04:57:11;;;;;;;0.75;0.70;;;22.30;74.10;;;;;;5028881;28;20037;-77
2023/08/13 04:59:37;;;;;;;1.02;0.65;;;22.30;74.00;;;;;;5025580;28;20572;-77
2023/08/13 05:02:03;;;;;;;1.70;0.82;;;22.40;73.40;;;;;;5030100;28;20461;-77
2023/08/13 05:04:28;;;;;;;0.90;0.60;;;22.30;73.30;;;;;;5027764;28;20200;-77
2023/08/13 05:06:54;;;;;;;0.85;0.55;;;22.30;73.30;;;;;;5026056;28;20411;-77
2023/08/13 05:09:20;;;;;;;0.80;0.52;;;22.30;73.30;;;;;;5027548;28;20124;-77
2023/08/13 05:11:45;;;;;;;3.40;1.00;;;22.30;73.30;;;;;;5026420;28;20034;-77
2023/08/13 05:14:11;;;;;;;0.93;0.70;;;22.30;73.30;;;;;;5025954;28;20526;-77
2023/08/13 05:16:36;;;;;;;0.90;0.70;;;22.30;73.30;;;;;;5026212;28;20037;-77
2023/08/13 05:19:03;;;;;;;0.65;0.50;;;22.30;73.30;;;;;;5026584;28;20045;-77
2023/08/13 05:21:28;;;;;;;0.95;0.40;;;22.30;73.30;;;;;;5025862;28;20198;-77
2023/08/13 05:23:54;;;;;;;1.25;0.82;;;22.30;74.00;;;;;;5027220;28;20578;-77
2023/08/13 05:26:20;;;;;;;1.08;0.70;;;22.30;73.30;;;;;;5026102;28;20036;-77
2023/08/13 05:28:45;;;;;;;0.68;0.60;;;22.30;73.30;;;;;;5024603;28;20033;-77
2023/08/13 05:31:11;;;;;;;0.70;0.50;;;22.30;73.20;;;;;;5027706;28;20526;-77
2023/08/13 05:33:36;;;;;;;0.82;0.70;;;22.30;73.20;;;;;;5024308;28;20137;-77
2023/08/13 05:36:02;;;;;;;0.95;0.63;;;22.30;73.20;;;;;;5027954;28;20029;-77
2023/08/13 05:38:28;;;;;;;0.60;0.60;;;22.30;73.30;;;;;;5007861;28;20048;-77
2023/08/13 05:40:54;;;;;;;0.75;0.50;;;22.30;73.30;;;;;;5026437;28;20477;-77
2023/08/13 05:43:19;;;;;;;0.95;0.70;;;22.30;74.00;;;;;;5025808;28;20038;-77
2023/08/13 05:45:45;;;;;;;0.60;0.50;;;22.30;73.30;;;;;;5025115;28;20038;-77
2023/08/13 05:48:10;;;;;;;0.73;0.50;;;22.30;73.30;;;;;;5026844;28;20048;-77
2023/08/13 05:50:36;;;;;;;1.20;0.73;;;22.30;73.30;;;;;;5027344;28;20569;-77
2023/08/13 05:53:02;;;;;;;0.63;0.52;;;22.30;73.20;;;;;;5026126;28;20053;-77
2023/08/13 05:55:27;;;;;;;1.08;0.65;;;22.30;73.30;;;;;;5025756;28;20136;-77
2023/08/13 05:57:53;;;;;;;0.68;0.68;;;22.30;73.30;;;;;;5025974;28;20426;-77
2023/08/13 06:00:18;;;;;;;1.55;0.50;;;22.30;73.30;;;;;;5026091;28;20132;-77
2023/08/13 06:02:44;;;;;;;1.13;0.60;;;22.30;73.30;;;;;;5025826;28;20049;-77
2023/08/13 06:05:09;;;;;;;0.90;0.70;;;22.30;73.30;;;;;;5026252;28;20042;-77
2023/08/13 06:07:35;;;;;;;0.98;0.68;;;22.30;73.30;;;;;;5023804;28;20513;-77
2023/08/13 06:10:04;;;;;;;0.70;0.45;;;22.30;73.30;;;;;;5024151;28;20450;-77
2023/08/13 06:12:30;;;;;;;0.60;0.60;;;22.30;73.20;;;;;;5024033;28;20041;-77
2023/08/13 06:14:55;;;;;;;1.13;0.63;;;22.30;73.20;;;;;;5026281;28;20397;-77
2023/08/13 06:17:21;;;;;;;1.58;0.82;;;22.30;73.20;;;;;;5024675;28;20064;-77
2023/08/13 06:19:46;;;;;;;0.60;0.57;;;22.30;73.20;;;;;;5024483;28;20116;-77
2023/08/13 06:22:13;;;;;;;0.70;0.50;;;22.30;73.20;;;;;;5008298;28;20038;-77
2023/08/13 06:24:39;;;;;;;1.17;0.60;;;22.30;73.20;;;;;;5025008;28;20026;-77
2023/08/13 06:27:04;;;;;;;1.08;0.55;;;22.30;74.10;;;;;;5026158;28;20033;-77
2023/08/13 06:29:30;;;;;;;0.68;0.50;;;22.30;73.30;;;;;;5025338;28;20038;-77
2023/08/13 06:31:55;;;;;;;0.73;0.68;;;22.30;74.00;;;;;;5025683;28;20117;-77
2023/08/13 06:34:21;;;;;;;0.68;0.60;;;22.30;73.20;;;;;;5025352;28;20049;-77
2023/08/13 06:36:47;;;;;;;0.60;0.47;;;22.30;73.20;;;;;;5025177;28;20699;-77
2023/08/13 06:39:13;;;;;;;0.52;0.50;;;22.30;73.20;;;;;;5025443;28;20410;-77
2023/08/13 06:41:38;;;;;;;0.80;0.77;;;22.30;73.20;;;;;;5023098;28;20045;-77
2023/08/13 06:44:05;;;;;;;0.77;0.70;;;22.30;73.30;;;;;;5026208;28;20790;-77
2023/08/13 06:46:30;;;;;;;0.73;0.60;;;22.30;73.30;;;;;;5024855;28;20037;-77
2023/08/13 06:48:56;;;;;;;1.65;0.60;;;22.30;73.30;;;;;;5025027;28;20580;-77
2023/08/13 06:51:22;;;;;;;0.60;0.60;;;22.30;73.30;;;;;;5025300;28;20099;-77
2023/08/13 06:53:47;;;;;;;0.60;0.47;;;22.30;73.30;;;;;;5024282;28;20491;-77
2023/08/13 06:56:13;;;;;;;1.10;0.70;;;22.30;73.20;;;;;;5025475;28;20124;-77
2023/08/13 06:58:38;;;;;;;1.05;0.95;;;22.30;73.30;;;;;;5025253;28;20037;-77
2023/08/13 07:01:05;;;;;;;0.80;0.68;;;22.30;73.30;;;;;;5025388;28;20038;-77
2023/08/13 07:03:31;;;;;;;0.80;0.60;;;22.30;73.20;;;;;;5021968;28;20064;-77
2023/08/13 07:05:56;;;;;;;0.50;0.50;;;22.30;73.20;;;;;;5026667;28;20053;-77
2023/08/13 07:08:23;;;;;;;0.70;0.65;;;22.30;73.20;;;;;;5025324;28;20037;-77
2023/08/13 07:10:49;;;;;;;0.80;0.60;;;22.30;73.20;;;;;;5026640;28;20748;-77
2023/08/13 07:13:15;;;;;;;1.08;0.60;;;22.30;73.20;;;;;;5020932;28;20049;-77
2023/08/13 07:15:40;;;;;;;0.70;0.68;;;22.30;73.20;;;;;;5024027;28;20112;-77
2023/08/13 07:18:07;;;;;;;0.60;0.40;;;22.30;73.20;;;;;;5027392;28;20072;-77
2023/08/13 07:20:33;;;;;;;0.93;0.50;;;22.30;73.20;;;;;;5024862;28;20065;-77
2023/08/13 07:23:00;;;;;;;0.90;0.70;;;22.30;73.20;;;;;;5025127;28;20075;-78
2023/08/13 07:25:26;;;;;;;0.55;0.55;;;22.30;73.20;;;;;;5025069;28;20406;-77
2023/08/13 07:27:52;;;;;;;0.73;0.50;;;22.30;73.20;;;;;;5024084;28;20512;-77
2023/08/13 07:30:18;;;;;;;0.90;0.65;;;22.30;73.20;;;;;;5025825;28;20037;-77
2023/08/13 07:32:43;;;;;;;0.43;0.43;;;22.30;73.20;;;;;;5023540;28;20056;-77
2023/08/13 07:35:12;;;;;;;1.30;0.65;;;22.30;73.20;;;;;;5025054;28;20041;-77
2023/08/13 07:37:38;;;;;;;0.85;0.52;;;22.30;73.20;;;;;;5023901;28;20121;-77
2023/08/13 07:40:07;;;;;;;2.22;0.90;;;22.30;73.10;;;;;;5031861;28;20048;-77
2023/08/13 07:42:36;;;;;;;0.80;0.60;;;22.30;73.10;;;;;;5027505;28;20060;-77
2023/08/13 07:45:05;;;;;;;1.40;0.82;;;22.30;73.20;;;;;;5033949;28;20045;-77
2023/08/13 07:47:31;;;;;;;0.52;0.50;;;22.30;73.20;;;;;;5028377;28;20515;-77
2023/08/13 07:49:56;;;;;;;0.60;0.60;;;22.30;73.20;;;;;;5015482;28;20057;-77
2023/08/13 07:52:22;;;;;;;0.93;0.77;;;22.30;73.20;;;;;;4997208;28;20037;-77
2023/08/13 07:54:48;;;;;;;0.60;0.50;;;22.30;73.20;;;;;;5029330;28;20046;-77
2023/08/13 07:57:13;;;;;;;0.80;0.60;;;22.30;73.20;;;;;;5031821;28;20033;-77
2023/08/13 07:59:39;;;;;;;1.13;0.88;;;22.40;73.20;;;;;;5030539;28;20136;-77
2023/08/13 08:02:04;;;;;;;0.85;0.50;;;22.40;73.10;;;;;;5030909;28;20053;-78
2023/08/13 08:04:30;;;;;;;0.68;0.57;;;22.40;73.00;;;;;;5031345;28;20088;-78
2023/08/13 08:06:55;;;;;;;0.73;0.50;;;22.40;73.00;;;;;;5013824;28;20577;-77
2023/08/13 08:09:21;;;;;;;0.77;0.77;;;22.40;73.00;;;;;;5029491;28;20095;-77
2023/08/13 08:11:47;;;;;;;0.47;0.47;;;22.40;73.00;;;;;;5029376;28;20033;-77
2023/08/13 08:14:12;;;;;;;0.50;0.50;;;22.40;73.00;;;;;;5011298;28;20522;-77
2023/08/13 08:16:38;;;;;;;0.70;0.60;;;22.40;73.00;;;;;;5030832;28;20087;-77
2023/08/13 08:19:04;;;;;;;0.60;0.60;;;22.40;73.00;;;;;;5030149;28;20065;-77
2023/08/13 08:21:31;;;;;;;0.93;0.77;;;22.40;73.10;;;;;;5031146;28;20131;-77
2023/08/13 08:23:56;;;;;;;0.57;0.40;;;22.40;73.00;;;;;;5030517;28;20449;-77
2023/08/13 08:26:23;;;;;;;0.90;0.50;;;22.40;73.10;;;;;;5029837;28;20122;-77
2023/08/13 08:28:49;;;;;;;0.60;0.60;;;22.40;73.10;;;;;;5030004;28;20633;-77
2023/08/13 08:31:14;;;;;;;0.75;0.55;;;22.40;73.10;;;;;;5012696;28;20045;-77
2023/08/13 08:33:40;;;;;;;0.93;0.55;;;22.40;73.10;;;;;;5029701;28;20067;-77
2023/08/13 08:36:05;;;;;;;0.80;0.60;;;22.40;73.80;;;;;;5032228;28;20058;-77
2023/08/13 08:38:31;;;;;;;0.40;0.40;;;22.40;73.00;;;;;;5010198;28;20042;-77
2023/08/13 08:40:58;;;;;;;0.68;0.55;;;22.40;73.00;;;;;;5030824;28;20045;-78
2023/08/13 08:43:24;;;;;;;0.85;0.60;;;22.40;73.00;;;;;;5013286;28;20033;-77
2023/08/13 08:45:49;;;;;;;0.90;0.60;;;22.40;73.00;;;;;;5014287;28;20056;-77
2023/08/13 08:48:15;;;;;;;0.60;0.60;;;22.40;73.00;;;;;;5029716;28;20034;-78
2023/08/13 08:50:41;;;;;;;1.15;0.50;;;22.40;73.00;;;;;;5024048;28;20038;-77
2023/08/13 08:53:07;;;;;;;1.10;0.30;;;22.50;73.00;;;;;;5026504;28;20083;-77
2023/08/13 08:55:33;;;;;;;0.73;0.40;;;22.50;73.00;;;;;;5010393;28;20033;-77
2023/08/13 08:57:58;;;;;;;0.57;0.50;;;22.40;73.00;;;;;;5026396;28;20060;-77
2023/08/13 09:00:24;;;;;;;0.50;0.32;;;22.50;73.00;;;;;;5026460;28;20503;-78
2023/08/13 09:02:50;;;;;;;0.52;0.52;;;22.50;73.70;;;;;;5028039;28;20049;-77
2023/08/13 09:05:16;;;;;;;1.10;0.50;;;22.50;72.90;;;;;;5026502;28;20029;-77
2023/08/13 09:07:42;;;;;;;0.57;0.40;;;22.50;72.90;;;;;;5026419;28;20403;-77
2023/08/13 09:10:08;;;;;;;0.60;0.40;;;22.40;72.90;;;;;;5026595;28;20060;-78
2023/08/13 09:12:38;;;;;;;0.40;0.40;;;22.50;73.00;;;;;;5024779;28;20025;-78
2023/08/13 09:15:08;;;;;;;0.40;0.40;;;22.50;73.00;;;;;;5017289;28;20033;-78
2023/08/13 09:17:34;;;;;;;0.60;0.60;;;22.50;72.90;;;;;;5026649;28;20507;-77
2023/08/13 09:20:09;;;;;;;0.70;0.40;;;22.50;73.00;;;;;;5026435;28;20084;-77
2023/08/13 09:22:35;;;;;;;0.52;0.52;;;22.50;72.90;;;;;;5026132;28;20087;-78
2023/08/13 09:25:02;;;;;;;1.40;0.50;;;22.50;73.00;;;;;;5026210;28;20029;-77
2023/08/13 09:27:28;;;;;;;0.70;0.70;;;22.50;73.00;;;;;;5026300;28;20091;-77
2023/08/13 09:29:54;;;;;;;0.73;0.40;;;22.50;73.00;;;;;;5027094;28;20038;-78
2023/08/13 09:32:19;;;;;;;0.73;0.57;;;22.50;73.00;;;;;;5026495;28;20041;-78
2023/08/13 09:34:45;;;;;;;0.50;0.40;;;22.50;73.00;;;;;;5009220;28;20459;-77
2023/08/13 09:37:10;;;;;;;0.30;0.30;;;22.50;73.20;;;;;;5024401;28;20087;-78
2023/08/13 09:39:36;;;;;;;0.47;0.35;;;22.50;73.20;;;;;;5025797;28;20040;-78
2023/08/13 09:42:02;;;;;;;0.38;0.30;;;22.50;73.10;;;;;;5027209;28;20081;-78
2023/08/13 09:44:29;;;;;;;0.60;0.50;;;22.50;73.20;;;;;;5026073;28;20025;-78
2023/08/13 09:46:58;;;;;;;0.32;0.30;;;22.60;73.10;;;;;;5024538;28;20471;-78
2023/08/13 09:49:24;;;;;;;0.50;0.45;;;22.60;73.90;;;;;;5025899;28;20034;-78
2023/08/13 09:51:49;;;;;;;0.80;0.63;;;22.60;73.10;;;;;;5024627;28;20470;-77
2023/08/13 09:54:22;;;;;;;0.52;0.52;;;22.60;73.00;;;;;;5026188;28;20091;-78
2023/08/13 09:56:52;;;;;;;0.47;0.43;;;22.60;72.50;;;;;;5024844;28;20095;-78
2023/08/13 09:59:17;;;;;;;0.77;0.43;;;22.60;72.50;;;;;;5027618;28;20292;-78
2023/08/13 10:01:43;;;;;;;0.65;0.40;;;22.60;72.80;;;;;;5026177;28;20095;-77
2023/08/13 10:04:09;;;;;;;0.93;0.40;;;22.60;72.30;;;;;;5011291;28;20053;-77
2023/08/13 10:06:35;;;;;;;1.00;0.40;;;22.60;72.70;;;;;;5026475;28;20495;-78
2023/08/13 10:09:00;;;;;;;0.40;0.40;;;22.60;72.50;;;;;;5010125;28;20072;-78
2023/08/13 10:11:26;;;;;;;0.40;0.40;;;22.60;73.50;;;;;;5025561;28;20065;-77
2023/08/13 10:13:51;;;;;;;0.30;0.30;;;22.60;72.80;;;;;;5024787;28;20045;-78
2023/08/13 10:16:17;;;;;;;0.50;0.40;;;22.60;73.10;;;;;;5024372;28;20049;-78
2023/08/13 10:18:45;;;;;;;1.13;0.30;;;22.60;73.00;;;;;;5025314;28;20045;-77
2023/08/13 10:21:13;;;;;;;1.13;0.40;;;22.60;72.90;;;;;;5026445;28;20053;-78
2023/08/13 10:23:39;;;;;;;0.52;0.30;;;22.60;73.00;;;;;;5024848;28;20415;-77
2023/08/13 10:26:05;;;;;;;1.23;0.40;;;22.60;72.90;;;;;;5023097;28;20045;-77
2023/08/13 10:28:31;;;;;;;0.40;0.40;;;22.60;72.80;;;;;;5024625;28;20132;-77
2023/08/13 10:31:21;;;;;;;0.70;0.50;;;22.60;72.70;;;;;;5025917;28;20487;-77
2023/08/13 10:33:46;;;;;;;0.55;0.30;;;22.60;72.80;;;;;;5019123;28;20053;-78
2023/08/13 10:36:12;;;;;;;0.38;0.38;;;22.60;72.40;;;;;;5026005;28;20056;-77
2023/08/13 10:38:40;;;;;;;0.63;0.50;;;22.70;72.80;;;;;;5026582;28;20064;-78
2023/08/13 10:41:06;;;;;;;0.30;0.30;;;22.70;73.00;;;;;;5023181;28;20044;-78
2023/08/13 10:43:33;;;;;;;0.40;0.30;;;22.60;72.90;;;;;;5023244;28;20095;-78
2023/08/13 10:45:58;;;;;;;0.47;0.32;;;22.70;72.80;;;;;;5024442;28;20057;-78
2023/08/13 10:48:28;;;;;;;0.70;0.57;;;22.60;73.60;;;;;;5023760;28;20099;-77
2023/08/13 10:50:57;;;;;;;0.40;0.40;;;22.60;72.70;;;;;;5024257;28;20062;-77
2023/08/13 10:53:24;;;;;;;0.30;0.20;;;22.70;72.90;;;;;;5024132;28;20073;-78
2023/08/13 10:55:51;;;;;;;0.20;0.20;;;22.70;72.70;;;;;;5003842;28;20034;-77
2023/08/13 10:58:44;;;;;;;0.30;0.30;;;22.70;72.60;;;;;;5025016;28;20041;-78
2023/08/13 11:01:10;;;;;;;0.40;0.30;;;22.70;72.40;;;;;;5024214;28;20050;-78
2023/08/13 11:03:43;;;;;;;0.90;0.50;;;22.70;72.80;;;;;;5024445;28;20043;-78
2023/08/13 11:06:09;;;;;;;0.40;0.40;;;22.60;72.60;;;;;;5023788;28;20119;-78
2023/08/13 11:08:36;;;;;;;0.40;0.40;;;22.70;72.70;;;;;;4992089;28;20518;-78
2023/08/13 11:11:01;;;;;;;0.22;0.22;;;22.60;72.60;;;;;;4989779;28;20037;-78
2023/08/13 11:13:27;;;;;;;0.57;0.40;;;22.70;72.40;;;;;;5023708;28;20053;-78
2023/08/13 11:15:54;;;;;;;0.40;0.20;;;22.70;72.70;;;;;;5024494;28;20038;-78
2023/08/13 11:18:20;;;;;;;0.28;0.28;;;22.70;72.50;;;;;;5007770;28;20045;-78
2023/08/13 11:20:46;;;;;;;0.45;0.30;;;22.70;72.30;;;;;;5024996;28;20043;-77
2023/08/13 11:23:12;;;;;;;0.30;0.30;;;22.70;72.60;;;;;;5008486;28;20049;-78
2023/08/13 11:25:38;;;;;;;0.57;0.30;;;22.70;72.40;;;;;;5024748;28;20032;-78
2023/08/13 11:28:04;;;;;;;0.50;0.50;;;22.70;72.10;;;;;;5023610;28;20049;-78
2023/08/13 11:30:30;;;;;;;0.50;0.50;;;22.70;72.30;;;;;;5024524;28;20055;-78
2023/08/13 11:32:55;;;;;;;0.93;0.60;;;22.70;72.20;;;;;;5023966;28;20041;-78
2023/08/13 11:35:21;;;;;;;0.40;0.40;;;22.70;72.40;;;;;;5021847;28;20125;-78
2023/08/13 11:37:46;;;;;;;0.22;0.20;;;22.70;72.20;;;;;;5022566;28;20103;-77
2023/08/13 11:40:13;;;;;;;0.40;0.30;;;22.70;72.30;;;;;;5020318;28;20042;-78
2023/08/13 11:42:59;;;;;;;0.60;0.60;;;22.70;72.30;;;;;;5020740;28;20538;-78
2023/08/13 11:45:25;;;;;;;0.30;0.30;;;22.70;72.10;;;;;;5038836;28;20036;-77
2023/08/13 11:47:52;;;;;;;0.40;0.40;;;22.80;72.20;;;;;;5022720;28;20649;-78
2023/08/13 11:50:21;;;;;;;0.77;0.30;;;22.80;72.20;;;;;;5023746;28;20040;-78
2023/08/13 11:53:12;;;;;;;0.35;0.35;;;22.80;71.80;;;;;;5023980;28;20088;-78
2023/08/13 11:55:47;;;;;;;0.50;0.38;;;22.70;71.90;;;;;;5021261;28;20056;-78
2023/08/13 11:58:17;;;;;;;0.50;0.30;;;22.70;72.60;;;;;;5011621;28;20045;-78
2023/08/13 12:00:43;;;;;;;0.20;0.20;;;22.80;71.80;;;;;;5024277;28;20046;-78
2023/08/13 12:03:09;;;;;;;0.20;0.20;;;22.70;71.70;;;;;;5020973;28;20042;-77
2023/08/13 12:05:35;;;;;;;0.47;0.40;;;22.80;71.70;;;;;;5024447;28;20521;-77
2023/08/13 12:08:03;;;;;;;0.40;0.40;;;22.80;71.50;;;;;;5024678;28;20482;-77
2023/08/13 12:10:28;;;;;;;1.17;0.63;;;22.80;71.70;;;;;;5025949;28;20124;-78
2023/08/13 12:12:54;;;;;;;0.28;0.28;;;22.80;71.70;;;;;;5007862;28;20164;-77
2023/08/13 12:15:23;;;;;;;0.20;0.20;;;22.80;71.60;;;;;;5008152;28;20053;-77
2023/08/13 12:17:53;;;;;;;0.28;0.22;;;22.80;71.70;;;;;;5024467;28;20048;-78
2023/08/13 12:20:18;;;;;;;0.38;0.35;;;22.80;71.70;;;;;;5006869;28;20065;-77
2023/08/13 12:22:44;;;;;;;0.38;0.38;;;22.80;71.50;;;;;;5023883;28;20037;-78
2023/08/13 12:25:09;;;;;;;0.40;0.28;;;22.80;71.60;;;;;;5025433;28;20053;-78
2023/08/13 12:27:35;;;;;;;0.20;0.20;;;22.80;71.60;;;;;;5027615;28;20051;-78
2023/08/13 12:30:01;;;;;;;0.50;0.50;;;22.80;71.50;;;;;;5028929;28;20048;-78
2023/08/13 12:32:26;;;;;;;0.30;0.30;;;22.80;71.40;;;;;;5027667;28;20411;-78
2023/08/13 12:34:52;;;;;;;0.28;0.28;;;22.80;71.50;;;;;;5027575;28;20037;-77
2023/08/13 12:37:17;;;;;;;0.32;0.32;;;22.80;71.40;;;;;;5025299;28;20399;-78
2023/08/13 12:39:43;;;;;;;0.40;0.40;;;22.80;71.40;;;;;;5027856;28;20049;-77
2023/08/13 12:42:11;;;;;;;0.60;0.40;;;22.80;71.40;;;;;;5027305;28;20046;-77
2023/08/13 12:44:37;;;;;;;0.47;0.40;;;22.80;71.40;;;;;;5026498;28;20392;-78